In Rescue
 
Open Full Screen Window  High Contrast Mode
Wind Gusting 00 knots
09
March 01, 2024 5:16 PM EST
Weather Information
Wind Direction
  100 °
Wind Speed
  09 kt (10 mph)
Wind Gust
  00 kt (0 mph)
Altimeter
30.22 in
Visibility
10 SM
Temperature
02° C
36° F
Dewpoint
00° C
32° F
Humidity
87%
Sky Condition
Overcast @ 5,000 ft
Broken @ 4,400 ft
VFR

METAR KDLZ 012216Z AUTO 10009KT 10SM BKN044 OVC050 02/00 A3022 RMK AO2

FAA Disclaimer: The data displayed is for advisory purposes only and is not to be used for flight planning or operations.